Time;durP1;ratioP1;P1;durP2;ratioP2;P2;SDS_P1;SDS_P2;PMS_P1;PMS_P2;Temp;Humidity;BMP_temperature;BMP_pressure;BME280_temperature;BME280_humidity;BME280_pressure;Samples;Min_cycle;Max_cycle;Signal;HPM_P1;HPM_P2
2023/05/24 00:01:24;;;;;;;8.00;1.73;;;6.90;99.90;;;;;;7328135;32;20440;-54
2023/05/24 00:05:29;;;;;;;10.20;2.10;;;6.90;99.90;;;;;;7331289;32;20104;-54
2023/05/24 00:09:32;;;;;;;9.88;2.22;;;6.80;99.90;;;;;;7328285;32;20241;-55
2023/05/24 00:13:33;;;;;;;9.57;2.20;;;6.70;99.90;;;;;;7330276;32;20490;-55
2023/05/24 00:17:39;;;;;;;9.18;1.92;;;6.70;99.90;;;;;;7312419;32;20194;-54
2023/05/24 00:21:42;;;;;;;15.03;2.33;;;6.60;99.90;;;;;;7324212;32;20110;-55
2023/05/24 00:25:43;;;;;;;6.85;1.77;;;6.60;99.90;;;;;;7328930;32;20624;-54
2023/05/24 00:29:45;;;;;;;8.80;1.95;;;6.50;99.90;;;;;;7329088;32;20128;-53
2023/05/24 00:33:47;;;;;;;11.07;1.95;;;6.50;99.90;;;;;;7328225;32;20233;-55
2023/05/24 00:37:49;;;;;;;12.32;2.25;;;6.40;99.90;;;;;;7326428;32;20206;-54
2023/05/24 00:41:51;;;;;;;11.05;2.53;;;6.40;99.90;;;;;;7330015;32;20135;-54
2023/05/24 00:46:14;;;;;;;10.00;1.90;;;6.40;99.90;;;;;;7314381;32;20119;-55
2023/05/24 00:50:16;;;;;;;9.57;1.98;;;6.30;99.90;;;;;;7332191;32;20221;-55
2023/05/24 00:54:18;;;;;;;9.32;2.12;;;6.20;99.90;;;;;;7329704;32;20122;-55
2023/05/24 00:58:21;;;;;;;6.55;1.80;;;6.20;99.90;;;;;;7332461;32;20645;-54
2023/05/24 01:02:24;;;;;;;13.38;3.03;;;6.10;99.90;;;;;;7319489;32;20537;-55
2023/05/24 01:06:27;;;;;;;6.20;1.75;;;6.10;99.90;;;;;;7324415;32;20456;-54
2023/05/24 01:10:53;;;;;;;6.40;1.62;;;6.00;99.90;;;;;;7312668;32;20186;-54
2023/05/24 01:15:09;;;;;;;9.25;1.98;;;5.90;99.90;;;;;;7312753;32;20233;-54
2023/05/24 01:19:52;;;;;;;6.50;1.87;;;5.90;99.90;;;;;;7327630;32;20715;-56
2023/05/24 01:24:09;;;;;;;8.85;2.10;;;5.70;99.90;;;;;;7324822;32;20099;-55
2023/05/24 01:28:11;;;;;;;9.02;1.98;;;5.70;99.90;;;;;;7328593;32;20126;-54
2023/05/24 01:32:13;;;;;;;6.57;1.80;;;5.60;99.90;;;;;;7328848;32;20190;-55
2023/05/24 01:36:15;;;;;;;10.02;1.58;;;5.60;99.90;;;;;;7331322;32;20679;-53
2023/05/24 01:40:17;;;;;;;8.50;2.00;;;5.50;99.90;;;;;;7314292;32;20111;-54
2023/05/24 01:44:35;;;;;;;8.20;1.60;;;5.50;99.90;;;;;;7306322;32;20209;-55
2023/05/24 01:49:23;;;;;;;10.73;2.00;;;5.50;99.90;;;;;;7329816;32;20222;-55
2023/05/24 01:53:31;;;;;;;4.82;1.30;;;5.30;99.90;;;;;;7222615;32;20280;-54
2023/05/24 01:57:34;;;;;;;9.40;1.60;;;5.30;99.90;;;;;;7276622;32;20248;-53
2023/05/24 02:01:36;;;;;;;7.62;1.50;;;5.30;99.90;;;;;;7330002;32;20127;-56
2023/05/24 02:05:38;;;;;;;9.18;1.98;;;5.30;99.90;;;;;;7330371;32;20249;-54
2023/05/24 02:09:40;;;;;;;6.47;2.15;;;5.30;99.90;;;;;;7328615;32;20157;-54
2023/05/24 02:13:41;;;;;;;10.35;2.03;;;5.30;99.90;;;;;;7328940;32;20192;-57
2023/05/24 02:17:44;;;;;;;6.87;1.98;;;5.20;99.90;;;;;;7328071;32;20230;-55
2023/05/24 02:21:46;;;;;;;5.68;1.73;;;5.10;99.90;;;;;;7312341;32;20150;-53
2023/05/24 02:25:48;;;;;;;5.75;1.50;;;5.10;99.90;;;;;;7329217;32;20398;-53
2023/05/24 02:29:51;;;;;;;5.65;1.83;;;5.00;99.90;;;;;;7329647;32;20270;-54
2023/05/24 02:33:57;;;;;;;8.38;1.55;;;5.10;99.90;;;;;;7325757;32;20234;-53
2023/05/24 02:38:00;;;;;;;9.80;1.62;;;5.00;99.90;;;;;;7328477;32;20139;-53
2023/05/24 02:42:04;;;;;;;8.90;1.87;;;5.00;99.90;;;;;;7324985;32;20120;-54
2023/05/24 02:46:06;;;;;;;13.52;1.90;;;4.90;99.90;;;;;;7326239;32;20116;-54
2023/05/24 02:50:08;;;;;;;10.00;2.05;;;4.80;99.90;;;;;;7321074;32;20530;-54
2023/05/24 02:54:11;;;;;;;10.80;2.42;;;4.80;99.90;;;;;;7312621;32;20497;-54
2023/05/24 02:58:12;;;;;;;10.48;2.15;;;4.70;99.90;;;;;;7325482;32;20107;-55
2023/05/24 03:02:14;;;;;;;6.25;1.92;;;4.70;99.90;;;;;;7322234;32;20149;-54
2023/05/24 03:06:16;;;;;;;5.53;1.90;;;4.70;99.90;;;;;;7337072;32;20198;-55
2023/05/24 03:10:18;;;;;;;7.75;2.05;;;4.60;99.90;;;;;;7326701;32;20106;-53
2023/05/24 03:14:22;;;;;;;9.77;1.90;;;4.60;99.90;;;;;;7324013;32;20202;-53
2023/05/24 03:18:24;;;;;;;7.28;2.08;;;4.60;99.90;;;;;;7324131;32;20140;-53
2023/05/24 03:22:26;;;;;;;10.25;2.60;;;4.60;99.90;;;;;;7327192;32;20554;-54
2023/05/24 03:26:28;;;;;;;6.90;2.17;;;4.60;99.90;;;;;;7328687;32;20138;-53
2023/05/24 03:30:30;;;;;;;6.80;1.85;;;4.60;99.90;;;;;;7329702;32;20371;-54
2023/05/24 03:34:31;;;;;;;12.52;2.12;;;4.60;99.90;;;;;;7331428;32;20107;-55
2023/05/24 03:38:33;;;;;;;7.05;2.10;;;4.50;99.90;;;;;;7329994;32;20127;-55
2023/05/24 03:42:35;;;;;;;6.47;2.17;;;4.50;99.90;;;;;;7328156;32;20153;-55
2023/05/24 03:46:37;;;;;;;8.10;1.83;;;4.30;99.90;;;;;;7325415;32;20104;-54
2023/05/24 03:50:39;;;;;;;9.25;1.92;;;4.40;99.90;;;;;;7325103;32;20351;-55
2023/05/24 03:54:41;;;;;;;8.10;2.00;;;4.50;99.90;;;;;;7328225;32;20118;-55
2023/05/24 03:58:43;;;;;;;4.70;1.85;;;4.40;99.90;;;;;;7318652;32;20294;-55
2023/05/24 04:02:45;;;;;;;5.80;1.90;;;4.50;99.90;;;;;;7326963;32;20547;-55
2023/05/24 04:06:48;;;;;;;6.50;1.95;;;4.50;99.90;;;;;;7325151;32;20590;-52
2023/05/24 04:10:50;;;;;;;6.45;2.67;;;4.50;99.90;;;;;;7331628;32;20474;-54
2023/05/24 04:14:52;;;;;;;5.68;2.08;;;4.50;99.90;;;;;;7327941;32;20146;-57
2023/05/24 04:18:55;;;;;;;5.70;1.95;;;4.70;99.90;;;;;;7326247;32;20482;-54
2023/05/24 04:22:58;;;;;;;8.10;2.20;;;4.70;99.90;;;;;;7329096;32;20204;-54
2023/05/24 04:26:59;;;;;;;4.28;1.70;;;4.80;99.90;;;;;;7327457;32;20187;-54
2023/05/24 04:31:02;;;;;;;8.40;2.03;;;4.90;99.90;;;;;;7331592;32;20104;-56
2023/05/24 04:35:04;;;;;;;6.53;1.90;;;5.20;99.90;;;;;;7339575;32;20157;-54
2023/05/24 04:39:06;;;;;;;7.82;2.37;;;5.40;99.90;;;;;;7333965;32;20131;-54
2023/05/24 04:43:09;;;;;;;6.00;1.90;;;5.60;99.90;;;;;;7326858;32;20149;-54
2023/05/24 04:47:11;;;;;;;5.62;1.70;;;6.00;99.90;;;;;;7327955;32;20119;-55
2023/05/24 04:51:13;;;;;;;6.07;1.83;;;6.30;99.90;;;;;;7333323;32;20161;-55
2023/05/24 04:55:15;;;;;;;7.15;1.90;;;6.80;99.90;;;;;;7331685;32;20770;-55
2023/05/24 04:59:17;;;;;;;6.53;2.15;;;6.90;99.90;;;;;;7342072;32;20241;-55
2023/05/24 05:03:18;;;;;;;7.43;2.05;;;7.00;99.90;;;;;;7327193;32;20172;-56
2023/05/24 05:07:21;;;;;;;14.48;3.33;;;6.90;99.90;;;;;;7337120;32;20254;-57
2023/05/24 05:11:23;;;;;;;7.62;2.78;;;7.00;99.90;;;;;;7339250;32;20160;-56
2023/05/24 05:15:25;;;;;;;7.25;2.78;;;7.10;99.90;;;;;;7331017;32;20215;-56
2023/05/24 05:19:26;;;;;;;9.50;2.30;;;7.40;99.90;;;;;;7318888;32;20263;-57
2023/05/24 05:23:29;;;;;;;8.45;2.58;;;7.60;99.90;;;;;;7336021;32;20107;-55
2023/05/24 05:27:30;;;;;;;10.77;2.75;;;7.80;99.90;;;;;;7329701;32;20259;-56
2023/05/24 05:31:32;;;;;;;7.60;2.83;;;8.00;99.90;;;;;;7331617;32;20285;-55
2023/05/24 05:35:34;;;;;;;11.45;3.22;;;8.10;99.90;;;;;;7330423;32;20175;-54
2023/05/24 05:39:36;;;;;;;17.65;3.87;;;8.30;99.90;;;;;;7344460;32;20223;-55
2023/05/24 05:43:38;;;;;;;22.25;4.47;;;8.50;99.90;;;;;;7329240;32;20520;-55
2023/05/24 05:47:40;;;;;;;14.70;4.75;;;8.60;99.90;;;;;;7329136;32;20560;-55
2023/05/24 05:51:41;;;;;;;16.70;4.00;;;8.80;99.90;;;;;;7340929;32;20146;-56
2023/05/24 05:55:43;;;;;;;17.52;4.32;;;8.90;99.90;;;;;;7342900;32;20155;-55
2023/05/24 05:59:45;;;;;;;18.83;4.70;;;9.10;99.90;;;;;;7335000;32;20131;-55
2023/05/24 06:03:47;;;;;;;13.80;4.10;;;9.10;99.90;;;;;;7328865;32;20486;-56
2023/05/24 06:07:49;;;;;;;18.40;5.07;;;9.20;99.90;;;;;;7322120;32;20238;-56
2023/05/24 06:11:51;;;;;;;15.73;4.18;;;9.40;99.90;;;;;;7326165;32;20286;-56
2023/05/24 06:15:57;;;;;;;14.87;4.10;;;9.70;99.90;;;;;;7308665;32;20112;-57
2023/05/24 06:20:00;;;;;;;20.60;4.53;;;9.80;99.90;;;;;;7324461;32;20185;-55
2023/05/24 06:24:02;;;;;;;13.25;4.20;;;10.10;99.90;;;;;;7325315;32;20130;-55
2023/05/24 06:28:04;;;;;;;22.75;5.12;;;10.30;99.90;;;;;;7328300;32;20351;-55
2023/05/24 06:32:06;;;;;;;16.60;4.37;;;10.70;99.90;;;;;;7333933;32;20748;-55
2023/05/24 06:36:08;;;;;;;23.50;4.30;;;11.00;99.90;;;;;;7330077;32;20497;-56
2023/05/24 06:40:11;;;;;;;16.77;4.37;;;11.30;99.90;;;;;;7334919;32;20201;-55
2023/05/24 06:44:13;;;;;;;18.77;4.53;;;12.00;99.90;;;;;;7332697;32;21024;-56
2023/05/24 06:48:15;;;;;;;19.23;4.07;;;12.10;99.90;;;;;;7309920;32;20131;-56
2023/05/24 06:52:17;;;;;;;20.25;4.45;;;12.60;99.90;;;;;;7335126;32;20477;-55
2023/05/24 06:56:20;;;;;;;14.20;4.07;;;12.70;99.90;;;;;;7331208;32;20182;-55
2023/05/24 07:00:22;;;;;;;21.35;4.50;;;12.60;99.90;;;;;;7334259;32;20260;-57
2023/05/24 07:04:24;;;;;;;19.33;4.95;;;12.50;99.90;;;;;;7327810;32;20133;-56
2023/05/24 07:08:26;;;;;;;23.12;4.53;;;12.50;99.90;;;;;;7329527;32;20522;-56
2023/05/24 07:12:28;;;;;;;25.85;4.57;;;11.90;99.90;;;;;;7331379;32;20625;-55
2023/05/24 07:16:30;;;;;;;17.62;4.37;;;11.90;99.90;;;;;;7326670;32;20198;-56
2023/05/24 07:20:32;;;;;;;16.55;4.10;;;12.30;99.90;;;;;;7332900;32;20212;-56
2023/05/24 07:24:34;;;;;;;20.75;4.40;;;12.40;99.90;;;;;;7325114;32;20329;-57
2023/05/24 07:28:37;;;;;;;14.95;3.42;;;12.40;99.90;;;;;;7329459;32;20213;-56
2023/05/24 07:32:39;;;;;;;16.90;4.00;;;12.30;99.90;;;;;;7334734;32;20197;-56
2023/05/24 07:36:41;;;;;;;17.67;4.32;;;12.30;99.90;;;;;;7327196;32;20127;-56
2023/05/24 07:40:43;;;;;;;20.55;4.57;;;12.30;99.90;;;;;;7331306;32;20471;-57
2023/05/24 07:44:45;;;;;;;22.52;4.62;;;12.40;99.90;;;;;;7324517;32;20238;-56
2023/05/24 07:48:47;;;;;;;24.60;4.20;;;12.30;99.90;;;;;;7329587;32;20126;-56
2023/05/24 07:52:50;;;;;;;15.13;4.40;;;12.30;99.90;;;;;;7331233;32;20687;-55
2023/05/24 07:56:52;;;;;;;15.90;3.83;;;12.60;99.90;;;;;;7324700;32;20169;-57
2023/05/24 08:00:53;;;;;;;24.63;4.32;;;12.90;99.90;;;;;;7335914;32;20161;-57
2023/05/24 08:04:55;;;;;;;17.10;3.87;;;13.00;99.90;;;;;;7336511;32;20161;-56
2023/05/24 08:08:57;;;;;;;15.63;3.35;;;12.80;99.90;;;;;;7331065;32;20107;-56
2023/05/24 08:12:59;;;;;;;18.55;3.87;;;12.90;99.90;;;;;;7331543;32;20532;-56
2023/05/24 08:17:01;;;;;;;19.95;3.90;;;13.50;99.90;;;;;;7341300;32;20278;-56
2023/05/24 08:21:03;;;;;;;17.33;3.30;;;13.50;99.90;;;;;;7330894;32;20110;-57
2023/05/24 08:25:05;;;;;;;12.70;3.33;;;14.00;99.90;;;;;;7328599;32;20115;-56
2023/05/24 08:29:07;;;;;;;12.45;3.20;;;14.20;99.90;;;;;;7328738;32;20120;-56
2023/05/24 08:33:10;;;;;;;18.42;3.80;;;14.10;99.90;;;;;;7334610;32;20103;-56
2023/05/24 08:37:14;;;;;;;13.40;2.83;;;13.70;99.90;;;;;;7328660;32;20232;-57
2023/05/24 08:41:17;;;;;;;13.55;2.85;;;13.70;99.90;;;;;;7320396;32;20134;-56
2023/05/24 08:45:20;;;;;;;20.25;5.85;;;13.40;99.90;;;;;;7335556;32;20544;-56
2023/05/24 08:49:23;;;;;;;18.83;5.28;;;13.40;99.90;;;;;;7335617;32;20228;-57
2023/05/24 08:53:26;;;;;;;22.27;6.65;;;13.10;99.90;;;;;;7327309;32;20134;-56
2023/05/24 08:57:30;;;;;;;22.13;6.50;;;13.00;99.90;;;;;;7329782;32;20107;-55
2023/05/24 09:01:32;;;;;;;22.67;6.18;;;13.10;99.90;;;;;;7334740;32;20205;-57
2023/05/24 09:05:40;;;;;;;15.32;3.05;;;13.20;99.90;;;;;;7332986;32;20179;-56
2023/05/24 09:09:46;;;;;;;12.35;3.25;;;13.80;99.90;;;;;;7334793;32;20667;-57
2023/05/24 09:13:48;;;;;;;18.85;3.20;;;14.20;99.90;;;;;;7330484;32;20545;-57
2023/05/24 09:17:50;;;;;;;13.65;2.92;;;14.60;99.90;;;;;;7336736;32;20137;-56
2023/05/24 09:21:53;;;;;;;11.25;2.90;;;15.10;99.90;;;;;;7332025;32;20590;-57
2023/05/24 09:25:55;;;;;;;9.27;2.90;;;16.60;99.90;;;;;;7330394;32;20241;-56
2023/05/24 09:29:57;;;;;;;11.02;2.72;;;17.10;99.90;;;;;;7333249;32;20130;-58
2023/05/24 09:34:00;;;;;;;12.40;3.00;;;18.10;99.90;;;;;;7334470;32;20104;-56
2023/05/24 09:38:02;;;;;;;10.90;2.90;;;17.30;99.90;;;;;;7336128;32;20312;-58
2023/05/24 09:42:05;;;;;;;16.60;2.85;;;16.30;99.90;;;;;;7331633;32;20271;-57
2023/05/24 09:46:06;;;;;;;15.95;3.50;;;15.60;99.90;;;;;;7341768;32;20108;-56
2023/05/24 09:50:13;;;;;;;15.10;3.80;;;15.60;99.90;;;;;;7330109;32;20849;-55
2023/05/24 09:54:16;;;;;;;13.90;3.03;;;15.80;99.90;;;;;;7335215;32;20803;-56
2023/05/24 09:58:18;;;;;;;11.12;2.97;;;16.60;99.90;;;;;;7326480;32;20150;-56
2023/05/24 10:02:22;;;;;;;12.10;2.67;;;16.50;99.90;;;;;;7330369;32;20229;-58
2023/05/24 10:06:24;;;;;;;13.77;3.37;;;15.60;99.90;;;;;;7331851;32;20158;-57
2023/05/24 10:10:28;;;;;;;18.90;4.28;;;15.20;99.90;;;;;;7326658;32;20111;-55
2023/05/24 10:14:35;;;;;;;14.98;3.80;;;15.10;99.90;;;;;;7329793;32;20119;-55
2023/05/24 10:18:37;;;;;;;14.65;4.20;;;14.70;99.90;;;;;;7330406;32;20120;-56
2023/05/24 10:22:46;;;;;;;14.75;3.75;;;14.90;99.90;;;;;;7329486;32;20214;-57
2023/05/24 10:26:49;;;;;;;11.93;3.67;;;15.50;99.90;;;;;;7328652;32;20104;-57
2023/05/24 10:31:15;;;;;;;13.13;3.62;;;15.50;99.90;;;;;;7327632;32;20162;-56
2023/05/24 10:35:19;;;;;;;15.48;3.83;;;15.50;99.90;;;;;;7324080;32;20216;-57
2023/05/24 10:39:21;;;;;;;14.25;3.72;;;15.60;99.90;;;;;;7325103;32;20322;-57
2023/05/24 10:43:24;;;;;;;12.35;2.90;;;16.30;99.90;;;;;;7334687;32;20153;-57
2023/05/24 10:47:29;;;;;;;12.37;3.05;;;16.20;99.90;;;;;;7333880;32;20181;-57
2023/05/24 10:51:37;;;;;;;13.70;3.30;;;16.30;99.90;;;;;;7328888;32;20103;-57
2023/05/24 10:55:56;;;;;;;13.10;2.92;;;16.20;99.90;;;;;;7334693;32;20123;-57
2023/05/24 11:00:24;;;;;;;10.82;3.03;;;15.40;99.90;;;;;;7328749;32;20828;-56
2023/05/24 11:04:47;;;;;;;10.07;2.67;;;15.00;99.90;;;;;;7333191;32;20150;-57
2023/05/24 11:08:49;;;;;;;11.50;3.22;;;15.00;99.90;;;;;;7326391;32;20138;-57
2023/05/24 11:13:01;;;;;;;12.57;3.33;;;15.40;99.90;;;;;;7333613;32;20253;-57
2023/05/24 11:17:04;;;;;;;11.18;3.62;;;15.50;99.90;;;;;;7328650;32;20173;-57
2023/05/24 11:21:06;;;;;;;9.38;2.70;;;15.20;99.90;;;;;;7331942;32;20186;-57
2023/05/24 11:25:09;;;;;;;14.85;3.05;;;15.10;99.90;;;;;;7326802;32;20130;-56
2023/05/24 11:29:16;;;;;;;13.88;3.37;;;14.70;99.90;;;;;;7330720;32;20199;-57
2023/05/24 11:33:22;;;;;;;11.90;3.00;;;14.40;99.90;;;;;;7326396;32;20143;-57
2023/05/24 11:37:24;;;;;;;10.45;3.50;;;14.00;99.90;;;;;;7332726;32;20229;-57
2023/05/24 11:41:46;;;;;;;13.80;4.53;;;13.90;99.90;;;;;;7331442;32;20224;-57
2023/05/24 11:45:50;;;;;;;12.20;3.03;;;13.90;99.90;;;;;;7331357;32;20122;-56
2023/05/24 11:49:52;;;;;;;12.40;2.87;;;13.80;99.90;;;;;;7329341;32;20226;-57
2023/05/24 11:53:58;;;;;;;14.77;3.33;;;13.80;99.90;;;;;;7332017;32;20266;-57
2023/05/24 11:58:04;;;;;;;9.10;2.60;;;14.30;99.90;;;;;;7328915;32;20130;-56
2023/05/24 12:02:07;;;;;;;11.90;3.17;;;14.40;99.90;;;;;;7327213;32;20316;-56
2023/05/24 12:06:09;;;;;;;15.88;3.42;;;14.50;99.90;;;;;;7326098;32;20218;-56
2023/05/24 12:10:12;;;;;;;9.43;2.90;;;14.50;99.90;;;;;;7308325;32;20203;-55
2023/05/24 12:14:16;;;;;;;9.52;2.78;;;14.90;99.90;;;;;;7331933;32;20115;-56
2023/05/24 12:18:22;;;;;;;13.07;2.87;;;15.50;99.90;;;;;;7329748;32;20252;-56
2023/05/24 12:22:28;;;;;;;12.75;2.67;;;15.00;99.90;;;;;;7332382;32;20162;-56
2023/05/24 12:26:30;;;;;;;13.55;3.08;;;15.20;99.90;;;;;;7326203;32;20180;-55
2023/05/24 12:30:32;;;;;;;11.15;2.80;;;15.80;99.90;;;;;;7322693;32;20544;-56
2023/05/24 12:34:33;;;;;;;8.98;2.55;;;16.70;99.90;;;;;;7331742;32;20481;-55
2023/05/24 12:38:35;;;;;;;8.80;2.67;;;17.10;99.90;;;;;;7325084;32;20455;-56
2023/05/24 12:42:37;;;;;;;12.23;2.80;;;17.00;99.90;;;;;;7332473;32;20127;-56
2023/05/24 12:46:39;;;;;;;9.05;2.75;;;16.70;99.90;;;;;;7335222;32;21133;-55
2023/05/24 12:50:41;;;;;;;11.32;2.67;;;16.60;99.90;;;;;;7335929;32;20190;-56
2023/05/24 12:54:43;;;;;;;8.82;2.72;;;16.40;99.90;;;;;;7339683;32;20111;-56
2023/05/24 12:58:46;;;;;;;10.30;2.75;;;16.10;99.90;;;;;;7327540;32;20154;-56
2023/05/24 13:02:48;;;;;;;14.38;3.87;;;15.80;99.90;;;;;;7315679;32;20174;-56
2023/05/24 13:06:50;;;;;;;18.87;3.35;;;15.80;99.90;;;;;;7327974;32;20584;-56
2023/05/24 13:10:52;;;;;;;9.77;2.70;;;16.20;99.90;;;;;;7329622;32;20621;-57
2023/05/24 13:14:54;;;;;;;9.40;3.47;;;17.00;99.90;;;;;;7330787;32;20177;-56
2023/05/24 13:18:56;;;;;;;11.82;2.92;;;17.00;99.90;;;;;;7323672;32;20126;-56
2023/05/24 13:22:58;;;;;;;11.25;2.92;;;16.70;99.90;;;;;;7323936;32;20135;-55
2023/05/24 13:27:00;;;;;;;9.90;2.78;;;16.30;99.90;;;;;;7328686;32;20687;-56
2023/05/24 13:31:02;;;;;;;10.27;3.47;;;16.30;99.90;;;;;;7331723;32;20116;-58
2023/05/24 13:35:04;;;;;;;11.50;3.22;;;16.40;99.90;;;;;;7314693;32;20130;-57
2023/05/24 13:39:09;;;;;;;16.05;3.70;;;16.30;99.90;;;;;;7329264;32;20099;-57
2023/05/24 13:43:17;;;;;;;12.20;3.50;;;16.00;99.90;;;;;;7327102;32;20103;-57
2023/05/24 13:47:19;;;;;;;16.12;3.33;;;15.30;99.90;;;;;;7325745;32;20127;-56
2023/05/24 13:51:41;;;;;;;15.27;3.60;;;15.20;99.90;;;;;;7327691;32;20159;-56
2023/05/24 13:55:43;;;;;;;11.93;4.30;;;15.30;99.90;;;;;;7319814;32;20194;-57
2023/05/24 13:59:45;;;;;;;14.82;3.50;;;15.50;99.90;;;;;;7325615;32;20249;-56
2023/05/24 14:03:47;;;;;;;12.73;2.97;;;15.30;99.90;;;;;;7326840;32;20560;-56
2023/05/24 14:07:49;;;;;;;16.60;3.47;;;14.90;99.90;;;;;;7323821;32;20190;-56
2023/05/24 14:11:51;;;;;;;10.32;3.08;;;15.20;99.90;;;;;;7324982;32;20136;-56
2023/05/24 14:15:53;;;;;;;12.13;4.18;;;15.50;99.90;;;;;;7331360;32;20229;-56
2023/05/24 14:19:55;;;;;;;11.60;3.08;;;16.00;99.90;;;;;;7324559;32;20574;-57
2023/05/24 14:23:57;;;;;;;14.60;3.55;;;16.40;99.90;;;;;;7330137;32;20153;-56
2023/05/24 14:27:59;;;;;;;10.90;3.70;;;16.70;99.90;;;;;;7324491;32;20129;-56
2023/05/24 14:32:01;;;;;;;12.07;4.05;;;16.30;99.90;;;;;;7325265;32;20119;-56
2023/05/24 14:36:03;;;;;;;16.37;4.37;;;15.90;99.90;;;;;;7314705;32;20586;-57
2023/05/24 14:40:05;;;;;;;12.15;3.83;;;15.60;99.90;;;;;;7316996;32;20126;-57
2023/05/24 14:44:07;;;;;;;11.57;3.75;;;15.60;99.90;;;;;;7328015;32;20137;-55
2023/05/24 14:48:10;;;;;;;12.63;3.67;;;15.30;99.90;;;;;;7323173;32;20707;-56
2023/05/24 14:52:12;;;;;;;16.48;6.07;;;15.30;99.90;;;;;;7324520;32;20116;-59
2023/05/24 14:56:14;;;;;;;15.48;3.58;;;14.90;99.90;;;;;;7322676;32;20620;-54
2023/05/24 15:00:17;;;;;;;21.65;5.03;;;14.80;99.90;;;;;;7332089;32;20287;-56
2023/05/24 15:04:23;;;;;;;10.63;3.45;;;15.00;99.90;;;;;;7307758;32;20147;-57
2023/05/24 15:08:25;;;;;;;11.65;4.47;;;15.10;99.90;;;;;;7324696;32;20536;-56
2023/05/24 15:12:26;;;;;;;13.02;3.58;;;15.20;99.90;;;;;;7324179;32;20222;-56
2023/05/24 15:16:28;;;;;;;18.05;3.80;;;15.20;99.90;;;;;;7330298;32;20133;-56
2023/05/24 15:20:32;;;;;;;14.07;4.25;;;14.80;99.90;;;;;;7329536;32;20520;-56
2023/05/24 15:24:37;;;;;;;14.63;4.12;;;14.60;99.90;;;;;;7321913;32;20573;-57
2023/05/24 15:28:38;;;;;;;15.45;4.20;;;14.60;99.90;;;;;;7325322;32;20918;-56
2023/05/24 15:32:40;;;;;;;15.60;4.22;;;14.50;99.90;;;;;;7323267;32;20169;-56
2023/05/24 15:36:44;;;;;;;14.13;4.07;;;14.50;99.90;;;;;;7327796;32;20364;-56
2023/05/24 15:40:46;;;;;;;13.90;4.00;;;14.70;99.90;;;;;;7327231;32;20170;-55
2023/05/24 15:44:48;;;;;;;12.23;3.60;;;14.70;99.90;;;;;;7325380;32;20514;-56
2023/05/24 15:48:49;;;;;;;10.45;3.85;;;14.90;99.90;;;;;;7331398;32;20130;-56
2023/05/24 15:52:51;;;;;;;11.35;4.10;;;15.00;99.90;;;;;;7328754;32;20762;-55
2023/05/24 15:56:53;;;;;;;16.40;5.03;;;14.90;99.90;;;;;;7328741;32;20222;-56
2023/05/24 16:00:55;;;;;;;15.07;4.60;;;14.70;99.90;;;;;;7328012;32;20199;-56
2023/05/24 16:04:56;;;;;;;15.93;4.30;;;14.80;99.90;;;;;;7331971;32;20115;-56
2023/05/24 16:08:58;;;;;;;13.18;3.65;;;14.80;99.90;;;;;;7327648;32;20168;-56
2023/05/24 16:13:00;;;;;;;14.32;4.45;;;14.60;99.90;;;;;;7327572;32;20135;-55
2023/05/24 16:17:03;;;;;;;13.98;4.43;;;14.60;99.90;;;;;;7327211;32;20202;-55
2023/05/24 16:21:06;;;;;;;14.18;4.10;;;14.70;99.90;;;;;;7323501;32;20127;-55
2023/05/24 16:25:09;;;;;;;15.02;4.62;;;14.70;99.90;;;;;;7320166;32;20165;-59
2023/05/24 16:29:13;;;;;;;12.40;4.25;;;14.60;99.90;;;;;;7306583;32;20857;-59
2023/05/24 16:33:15;;;;;;;17.17;4.93;;;14.60;99.90;;;;;;7329858;32;20107;-60
2023/05/24 16:37:17;;;;;;;16.48;4.37;;;14.70;99.90;;;;;;7306994;32;20692;-56
2023/05/24 16:41:19;;;;;;;12.10;4.15;;;14.90;99.90;;;;;;7326653;32;20212;-56
2023/05/24 16:45:20;;;;;;;14.50;4.40;;;14.70;99.90;;;;;;7324174;32;20604;-55
2023/05/24 16:49:22;;;;;;;16.48;4.37;;;14.60;99.90;;;;;;7326347;32;21183;-57
2023/05/24 16:53:25;;;;;;;13.82;4.00;;;14.50;99.90;;;;;;7319742;32;20135;-56
2023/05/24 16:57:27;;;;;;;13.43;3.80;;;14.40;99.90;;;;;;7322150;32;20143;-57
2023/05/24 17:01:30;;;;;;;10.68;3.55;;;14.30;99.90;;;;;;7328370;32;20126;-58
2023/05/24 17:05:32;;;;;;;14.27;4.32;;;14.20;99.90;;;;;;7332361;32;20138;-57
2023/05/24 17:09:33;;;;;;;13.77;4.10;;;14.30;99.90;;;;;;7328267;32;20194;-57
2023/05/24 17:13:35;;;;;;;10.40;3.67;;;14.20;99.90;;;;;;7329909;32;20198;-57
2023/05/24 17:17:37;;;;;;;9.88;3.67;;;14.30;99.90;;;;;;7327046;32;20141;-56
2023/05/24 17:21:39;;;;;;;19.08;4.35;;;14.20;99.90;;;;;;7330976;32;20143;-58
2023/05/24 17:25:40;;;;;;;17.20;3.85;;;14.20;99.90;;;;;;7322057;32;20130;-57
2023/05/24 17:29:43;;;;;;;12.02;4.68;;;14.20;99.90;;;;;;7336893;32;20472;-57
2023/05/24 17:33:45;;;;;;;12.37;3.85;;;14.10;99.90;;;;;;7330752;32;20226;-57
2023/05/24 17:37:47;;;;;;;13.00;4.65;;;14.10;99.90;;;;;;7329985;32;20115;-57
2023/05/24 17:41:49;;;;;;;7.62;3.60;;;14.00;99.90;;;;;;7327413;32;20257;-57
2023/05/24 17:45:51;;;;;;;13.77;4.60;;;14.00;99.90;;;;;;7316870;32;20588;-58
2023/05/24 17:49:53;;;;;;;14.13;4.55;;;14.00;99.90;;;;;;7326958;32;20195;-57
2023/05/24 17:53:55;;;;;;;14.57;5.20;;;13.80;99.90;;;;;;7325044;32;20552;-57
2023/05/24 17:57:56;;;;;;;12.80;3.87;;;13.70;99.90;;;;;;7309844;32;20226;-55
2023/05/24 18:01:58;;;;;;;11.50;3.97;;;13.60;99.90;;;;;;7327821;32;20107;-57
2023/05/24 18:06:02;;;;;;;13.43;3.90;;;13.60;99.90;;;;;;7326147;32;20135;-55
2023/05/24 18:10:05;;;;;;;11.40;3.37;;;13.60;99.90;;;;;;7330814;32;20311;-55
2023/05/24 18:14:07;;;;;;;15.68;4.03;;;13.60;99.90;;;;;;7331632;32;20485;-55
2023/05/24 18:18:09;;;;;;;13.15;4.10;;;13.60;99.90;;;;;;7330676;32;20570;-54
2023/05/24 18:22:11;;;;;;;12.27;3.92;;;13.60;99.90;;;;;;7324395;32;20138;-57
2023/05/24 18:26:12;;;;;;;14.38;3.90;;;13.60;99.90;;;;;;7325911;32;20871;-57
2023/05/24 18:30:15;;;;;;;9.98;3.50;;;13.70;99.90;;;;;;7330578;32;20124;-57
2023/05/24 18:34:17;;;;;;;9.50;3.25;;;13.70;99.90;;;;;;7329311;32;20191;-57
2023/05/24 18:38:18;;;;;;;10.07;3.40;;;13.60;99.90;;;;;;7330403;32;20381;-57
2023/05/24 18:42:20;;;;;;;10.75;3.80;;;13.60;99.90;;;;;;7331343;32;20095;-57
2023/05/24 18:46:24;;;;;;;11.95;4.18;;;13.60;99.90;;;;;;7331939;32;20111;-57
2023/05/24 18:50:26;;;;;;;11.27;4.87;;;13.60;99.90;;;;;;7330753;32;20248;-56
2023/05/24 18:54:29;;;;;;;12.18;4.53;;;13.50;99.90;;;;;;7329567;32;20129;-55
2023/05/24 18:58:31;;;;;;;13.05;5.05;;;13.40;99.90;;;;;;7329147;32;20190;-55
2023/05/24 19:02:37;;;;;;;12.13;4.20;;;13.30;99.90;;;;;;7330758;32;20127;-56
2023/05/24 19:06:39;;;;;;;10.95;3.72;;;13.10;99.90;;;;;;7331105;32;20103;-56
2023/05/24 19:10:41;;;;;;;10.43;3.58;;;13.00;99.90;;;;;;7324360;32;20612;-57
2023/05/24 19:14:43;;;;;;;11.07;3.83;;;12.90;99.90;;;;;;7324980;32;20265;-60
2023/05/24 19:18:45;;;;;;;7.45;3.53;;;12.70;99.90;;;;;;7314050;32;20115;-55
2023/05/24 19:22:46;;;;;;;9.95;4.10;;;12.60;99.90;;;;;;7324031;32;20293;-56
2023/05/24 19:26:51;;;;;;;8.70;3.72;;;12.40;99.90;;;;;;7328908;32;20603;-56
2023/05/24 19:30:53;;;;;;;13.25;4.62;;;12.30;99.90;;;;;;7328621;32;20553;-57
2023/05/24 19:34:55;;;;;;;10.45;4.57;;;12.10;99.90;;;;;;7312947;32;20258;-55
2023/05/24 19:38:57;;;;;;;10.77;4.57;;;12.00;99.90;;;;;;7328275;32;20198;-55
2023/05/24 19:42:59;;;;;;;19.55;9.20;;;11.80;99.90;;;;;;7327776;32;20100;-55
2023/05/24 19:47:02;;;;;;;12.65;5.37;;;11.70;99.90;;;;;;7322001;32;20164;-56
2023/05/24 19:51:03;;;;;;;13.00;3.70;;;11.70;99.90;;;;;;7320233;32;20692;-57
2023/05/24 19:55:07;;;;;;;13.82;4.40;;;11.60;99.90;;;;;;7329217;32;20214;-56
2023/05/24 19:59:08;;;;;;;9.55;4.03;;;11.40;99.90;;;;;;7327317;32;20848;-55
2023/05/24 20:03:10;;;;;;;12.50;4.57;;;11.30;99.90;;;;;;7320045;32;20183;-55
2023/05/24 20:07:13;;;;;;;10.52;4.50;;;11.10;99.90;;;;;;7322821;32;20322;-55
2023/05/24 20:11:15;;;;;;;9.80;4.40;;;11.10;99.90;;;;;;7319423;32;20151;-55
2023/05/24 20:15:17;;;;;;;11.35;4.25;;;10.90;99.90;;;;;;7323739;32;20257;-55
2023/05/24 20:19:20;;;;;;;11.10;4.75;;;10.80;99.90;;;;;;7320986;32;21175;-55
2023/05/24 20:23:26;;;;;;;15.93;4.62;;;10.60;99.90;;;;;;7316906;32;20199;-55
2023/05/24 20:27:27;;;;;;;14.85;4.25;;;10.40;99.90;;;;;;7318434;32;20490;-55
2023/05/24 20:31:29;;;;;;;13.30;5.10;;;10.30;99.90;;;;;;7326694;32;20209;-55
2023/05/24 20:35:31;;;;;;;11.25;4.93;;;10.20;99.90;;;;;;7324013;32;20520;-55
2023/05/24 20:39:33;;;;;;;12.57;4.90;;;10.10;99.90;;;;;;7306880;32;20112;-55
2023/05/24 20:43:35;;;;;;;9.10;4.57;;;10.00;99.90;;;;;;7324848;32;20170;-55
2023/05/24 20:47:36;;;;;;;11.18;4.78;;;9.90;99.90;;;;;;7321583;32;20573;-55
2023/05/24 20:51:38;;;;;;;11.63;5.10;;;9.80;99.90;;;;;;7318680;32;20194;-54
2023/05/24 20:55:40;;;;;;;14.55;4.82;;;9.70;99.90;;;;;;7327626;32;20178;-55
2023/05/24 20:59:42;;;;;;;10.85;4.68;;;9.60;99.90;;;;;;7318506;32;20194;-56